createdAt,value
2018-12-22T00:02:10.861Z,66.17
2018-12-22T00:04:37.403Z,66.45
2018-12-22T00:07:03.908Z,66.00
2018-12-22T00:09:30.403Z,65.29
2018-12-22T00:11:56.842Z,65.92
2018-12-22T00:14:23.340Z,65.10
2018-12-22T00:16:49.900Z,66.46
2018-12-22T00:19:16.514Z,67.39
2018-12-22T00:21:42.995Z,67.70
2018-12-22T00:24:09.573Z,68.19
2018-12-22T00:26:36.138Z,68.12
2018-12-22T00:29:02.612Z,67.52
2018-12-22T00:31:29.090Z,67.76
2018-12-22T00:33:55.649Z,67.54
2018-12-22T00:36:22.124Z,69.35
2018-12-22T00:38:52.269Z,70.24
2018-12-22T00:41:18.789Z,69.62
2018-12-22T00:43:45.292Z,68.68
2018-12-22T00:46:12.752Z,68.29
2018-12-22T00:48:39.311Z,68.62
2018-12-22T00:51:05.793Z,67.49
2018-12-22T00:53:32.355Z,66.98
2018-12-22T00:55:58.916Z,68.82
2018-12-22T00:58:30.688Z,69.80
2018-12-22T01:00:57.711Z,69.37
2018-12-22T01:03:24.378Z,68.75
2018-12-22T01:05:51.059Z,67.97
2018-12-22T01:08:17.618Z,69.13
2018-12-22T01:10:44.902Z,69.08
2018-12-22T01:13:11.791Z,68.67
2018-12-22T01:15:38.295Z,68.48
2018-12-22T01:18:04.737Z,69.29
2018-12-22T01:20:31.355Z,69.67
2018-12-22T01:22:58.116Z,70.10
2018-12-22T01:25:24.584Z,69.40
2018-12-22T01:27:51.033Z,70.27
2018-12-22T01:30:17.623Z,69.39
2018-12-22T01:32:44.715Z,69.89
2018-12-22T01:35:11.166Z,69.34
2018-12-22T01:37:37.717Z,69.33
2018-12-22T01:40:04.226Z,69.30
2018-12-22T01:42:30.765Z,70.65
2018-12-22T01:44:57.262Z,70.83
2018-12-22T01:47:23.773Z,70.15
2018-12-22T01:49:50.274Z,71.98
2018-12-22T01:52:16.741Z,70.40
2018-12-22T01:54:43.198Z,68.98
2018-12-22T01:57:09.702Z,69.63
2018-12-22T01:59:36.232Z,69.22
2018-12-22T02:02:02.727Z,68.66
2018-12-22T02:04:29.179Z,69.14
2018-12-22T02:06:55.643Z,68.66
2018-12-22T02:09:22.173Z,69.73
2018-12-22T02:11:48.614Z,69.80
2018-12-22T02:14:15.104Z,68.73
2018-12-22T02:16:41.539Z,68.33
2018-12-22T02:19:08.022Z,67.93
2018-12-22T02:21:34.482Z,68.20
2018-12-22T02:24:01.570Z,68.96
2018-12-22T02:26:28.079Z,68.53
2018-12-22T02:28:56.853Z,68.54
2018-12-22T02:31:23.023Z,68.33
2018-12-22T02:33:49.453Z,67.66
2018-12-22T02:36:15.971Z,67.43
2018-12-22T02:38:42.450Z,67.86
2018-12-22T02:41:09.806Z,68.32
2018-12-22T02:43:36.409Z,68.16
2018-12-22T02:46:02.862Z,67.12
2018-12-22T02:48:29.317Z,66.60
2018-12-22T02:50:55.765Z,67.13
2018-12-22T02:53:22.273Z,68.32
2018-12-22T02:55:48.760Z,69.57
2018-12-22T02:58:15.405Z,70.31
2018-12-22T03:00:41.953Z,70.73
2018-12-22T03:03:08.464Z,70.95
2018-12-22T03:05:35.006Z,71.21
2018-12-22T03:08:01.463Z,70.15
2018-12-22T03:10:27.886Z,69.40
2018-12-22T03:12:54.394Z,70.24
2018-12-22T03:15:21.173Z,69.90
2018-12-22T03:17:47.701Z,69.97
2018-12-22T03:20:14.437Z,70.48
2018-12-22T03:22:43.004Z,70.09
2018-12-22T03:25:09.455Z,69.62
2018-12-22T03:27:35.984Z,69.48
2018-12-22T03:30:02.473Z,71.03
2018-12-22T03:32:29.155Z,71.16
2018-12-22T03:34:55.827Z,71.13
2018-12-22T03:37:22.612Z,70.45
2018-12-22T03:39:49.119Z,70.17
2018-12-22T03:42:15.621Z,68.78
2018-12-22T03:44:42.742Z,68.22
2018-12-22T03:47:09.273Z,67.88
2018-12-22T03:49:35.750Z,67.46
2018-12-22T03:52:02.209Z,67.16
2018-12-22T03:54:28.743Z,67.37
2018-12-22T03:56:55.410Z,67.74
2018-12-22T03:59:24.985Z,68.11
2018-12-22T04:01:50.426Z,68.75
2018-12-22T04:04:16.904Z,68.93
2018-12-22T04:06:43.507Z,69.77
2018-12-22T04:09:09.951Z,69.81
2018-12-22T04:11:36.475Z,70.15
2018-12-22T04:14:02.950Z,70.16
2018-12-22T04:16:29.445Z,69.85
2018-12-22T04:18:55.892Z,70.40
2018-12-22T04:21:22.946Z,70.80
2018-12-22T04:23:49.397Z,70.42
2018-12-22T04:26:16.622Z,70.15
2018-12-22T04:28:43.680Z,70.36
2018-12-22T04:31:10.366Z,69.58
2018-12-22T04:33:37.400Z,68.98
2018-12-22T04:36:04.431Z,67.54
2018-12-22T04:38:31.507Z,67.90
2018-12-22T04:40:57.975Z,68.46
2018-12-22T04:43:24.967Z,67.98
2018-12-22T04:45:51.411Z,68.03
2018-12-22T04:48:17.923Z,67.71
2018-12-22T04:50:44.361Z,68.32
2018-12-22T04:53:10.807Z,68.58
2018-12-22T04:55:38.046Z,67.96
2018-12-22T04:58:04.864Z,69.05
2018-12-22T05:00:31.866Z,68.89
2018-12-22T05:02:58.547Z,67.10
2018-12-22T05:05:26.777Z,66.70
2018-12-22T05:07:54.939Z,66.97
2018-12-22T05:10:22.026Z,67.60
2018-12-22T05:12:49.181Z,66.92
2018-12-22T05:15:16.412Z,65.90
2018-12-22T05:17:44.930Z,67.12
2018-12-22T05:20:12.914Z,68.04
2018-12-22T05:22:39.398Z,68.59
2018-12-22T05:25:05.864Z,70.00
2018-12-22T05:27:33.675Z,68.14
2018-12-22T05:30:01.783Z,69.33
2018-12-22T05:32:28.252Z,69.93
2018-12-22T05:34:55.623Z,70.22
2018-12-22T05:37:23.369Z,69.86
2018-12-22T05:39:50.829Z,68.43
2018-12-22T05:42:18.089Z,67.94
2018-12-22T05:44:45.348Z,67.73
2018-12-22T05:47:12.000Z,67.22
2018-12-22T05:49:38.558Z,66.81
2018-12-22T05:52:05.874Z,66.99
2018-12-22T05:54:33.107Z,67.70
2018-12-22T05:57:00.412Z,68.63
2018-12-22T05:59:26.902Z,69.74
2018-12-22T06:01:54.143Z,69.86
2018-12-22T06:04:20.577Z,68.85
2018-12-22T06:06:47.137Z,67.17
2018-12-22T06:09:14.810Z,66.87
2018-12-22T06:11:41.813Z,66.75
2018-12-22T06:14:08.405Z,66.41
2018-12-22T06:16:36.119Z,66.00
2018-12-22T06:19:02.688Z,65.81
2018-12-22T06:21:29.404Z,65.64
2018-12-22T06:23:55.866Z,65.90
2018-12-22T06:26:24.038Z,65.49
2018-12-22T06:28:51.337Z,66.89
2018-12-22T06:31:18.097Z,67.19
2018-12-22T06:33:46.199Z,67.88
2018-12-22T06:36:12.835Z,66.72
2018-12-22T06:38:40.439Z,67.09
2018-12-22T06:41:07.768Z,67.44
2018-12-22T06:43:35.831Z,67.14
2018-12-22T06:46:02.804Z,67.29
2018-12-22T06:51:02.300Z,69.21
2018-12-22T06:53:29.730Z,69.85
2018-12-22T06:55:56.803Z,67.98
2018-12-22T06:58:23.287Z,67.61
2018-12-22T07:00:51.310Z,66.40
2018-12-22T07:03:18.447Z,66.46
2018-12-22T07:05:45.689Z,66.79
2018-12-22T07:08:12.160Z,66.69
2018-12-22T07:10:39.418Z,66.68
2018-12-22T07:13:06.039Z,67.59
2018-12-22T07:15:32.654Z,68.15
2018-12-22T07:17:59.838Z,65.83
2018-12-22T07:20:27.210Z,67.22
2018-12-22T07:22:53.683Z,67.10
2018-12-22T07:25:20.141Z,67.02
2018-12-22T07:27:46.589Z,67.37
2018-12-22T07:30:13.265Z,67.35
2018-12-22T07:32:39.706Z,67.00
2018-12-22T07:35:06.382Z,68.34
2018-12-22T07:37:33.726Z,68.97
2018-12-22T07:40:00.304Z,69.46
2018-12-22T07:42:28.639Z,68.74
2018-12-22T07:44:55.185Z,67.76
2018-12-22T07:47:23.415Z,67.28
2018-12-22T07:49:50.347Z,67.16
2018-12-22T07:52:17.088Z,65.34
2018-12-22T07:54:44.167Z,65.00
2018-12-22T07:57:10.752Z,66.00
2018-12-22T07:59:38.517Z,65.10
2018-12-22T08:02:05.034Z,65.62
2018-12-22T08:04:31.808Z,66.04
2018-12-22T08:06:58.298Z,67.02
2018-12-22T08:09:24.985Z,67.37
2018-12-22T08:11:51.424Z,67.10
2018-12-22T08:14:17.884Z,67.10
2018-12-22T08:16:45.209Z,66.69
2018-12-22T08:19:12.209Z,66.63
2018-12-22T08:21:39.330Z,65.79
2018-12-22T08:24:06.983Z,66.76
2018-12-22T08:26:34.837Z,66.93
2018-12-22T08:29:02.211Z,65.83
2018-12-22T08:31:30.211Z,65.97
2018-12-22T08:33:57.411Z,65.67
2018-12-22T08:36:24.776Z,64.83
2018-12-22T08:38:51.878Z,65.05
2018-12-22T08:41:18.350Z,64.79
2018-12-22T08:43:44.858Z,64.37
2018-12-22T08:46:11.668Z,64.15
2018-12-22T08:48:38.889Z,64.40
2018-12-22T08:51:05.335Z,65.08
2018-12-22T08:53:33.584Z,65.21
2018-12-22T08:56:00.710Z,66.57
2018-12-22T08:58:27.489Z,67.14
2018-12-22T09:00:56.072Z,67.56
2018-12-22T09:03:22.562Z,67.20
2018-12-22T09:05:51.127Z,67.97
2018-12-22T09:08:17.597Z,67.68
2018-12-22T09:10:45.042Z,67.55
2018-12-22T09:13:20.663Z,66.13
2018-12-22T09:15:41.091Z,65.28
2018-12-22T09:18:07.941Z,64.66
2018-12-22T09:20:35.306Z,64.94
2018-12-22T09:23:02.048Z,65.44
2018-12-22T09:25:29.456Z,65.75
2018-12-22T09:27:56.726Z,64.53
2018-12-22T09:30:23.765Z,63.90
2018-12-22T09:32:51.166Z,63.57
2018-12-22T09:35:18.682Z,62.61
2018-12-22T09:37:45.279Z,62.49
2018-12-22T09:40:12.537Z,60.95
2018-12-22T09:42:39.324Z,60.04
2018-12-22T09:45:05.753Z,58.60
2018-12-22T09:47:33.231Z,58.32
2018-12-22T09:50:00.346Z,58.03
2018-12-22T09:52:27.702Z,57.48
2018-12-22T09:54:56.217Z,56.86
2018-12-22T09:57:22.925Z,57.00
2018-12-22T09:59:50.557Z,57.22
2018-12-22T10:02:17.027Z,56.66
2018-12-22T10:04:43.982Z,56.90
2018-12-22T10:07:10.507Z,57.07
2018-12-22T10:09:37.507Z,56.58
2018-12-22T10:12:04.635Z,55.88
2018-12-22T10:14:31.401Z,56.44
2018-12-22T10:16:58.706Z,55.81
2018-12-22T10:19:25.378Z,55.74
2018-12-22T10:21:52.516Z,56.06
2018-12-22T10:24:19.733Z,55.42
2018-12-22T10:26:46.366Z,54.00
2018-12-22T10:29:13.707Z,55.72
2018-12-22T10:31:40.457Z,55.88
2018-12-22T10:34:07.046Z,55.90
2018-12-22T10:36:34.279Z,55.97
2018-12-22T10:39:00.755Z,55.13
2018-12-22T10:41:27.255Z,54.06
2018-12-22T10:43:53.799Z,52.71
2018-12-22T10:46:21.960Z,52.79
2018-12-22T10:48:48.898Z,52.95
2018-12-22T10:51:24.285Z,51.66
2018-12-22T10:53:45.937Z,51.67
2018-12-22T10:56:14.248Z,52.05
2018-12-22T10:58:42.082Z,52.38
2018-12-22T11:01:08.530Z,52.23
2018-12-22T11:03:35.627Z,51.84
2018-12-22T11:06:02.268Z,52.38
2018-12-22T11:08:30.492Z,52.29
2018-12-22T11:10:58.050Z,52.94
2018-12-22T11:13:25.799Z,51.10
2018-12-22T11:15:52.555Z,52.17
2018-12-22T11:18:21.379Z,52.08
2018-12-22T11:20:49.156Z,51.73
2018-12-22T11:23:20.403Z,52.37
2018-12-22T11:25:45.128Z,50.83
2018-12-22T11:28:11.629Z,50.96
2018-12-22T11:30:38.110Z,50.39
2018-12-22T11:33:05.295Z,49.66
2018-12-22T11:35:32.123Z,51.21
2018-12-22T11:37:58.594Z,51.01
2018-12-22T11:40:25.767Z,50.94
2018-12-22T11:42:52.220Z,48.94
2018-12-22T11:45:19.754Z,49.78
2018-12-22T11:47:46.837Z,50.46
2018-12-22T11:50:14.735Z,49.58
2018-12-22T11:52:41.182Z,48.72
2018-12-22T11:55:08.414Z,50.48
2018-12-22T11:57:35.932Z,50.38
2018-12-22T12:00:02.563Z,48.97
2018-12-22T12:02:29.293Z,49.94
2018-12-22T12:04:55.848Z,50.10
2018-12-22T12:07:22.506Z,50.67
2018-12-22T12:09:49.584Z,50.16
2018-12-22T12:12:16.807Z,50.34
2018-12-22T12:14:43.261Z,49.30
2018-12-22T12:17:10.243Z,50.71
2018-12-22T12:19:37.132Z,50.99
2018-12-22T12:22:03.633Z,50.65
2018-12-22T12:24:31.683Z,50.05
2018-12-22T12:26:58.471Z,51.37
2018-12-22T12:29:25.736Z,49.53
2018-12-22T12:31:52.554Z,48.74
2018-12-22T12:34:19.519Z,48.06
2018-12-22T12:36:46.526Z,48.56
2018-12-22T12:39:13.003Z,47.41
2018-12-22T12:41:41.102Z,47.50
2018-12-22T12:44:07.909Z,48.30
2018-12-22T12:46:35.574Z,47.64
2018-12-22T12:49:02.022Z,45.72
2018-12-22T12:51:28.492Z,46.42
2018-12-22T12:53:54.958Z,46.60
2018-12-22T12:56:23.762Z,46.55
2018-12-22T12:58:51.046Z,44.18
2018-12-22T13:01:18.091Z,45.61
2018-12-22T13:03:46.083Z,45.73
2018-12-22T13:06:13.180Z,47.18
2018-12-22T13:08:40.306Z,48.24
2018-12-22T13:11:07.317Z,48.48
2018-12-22T13:13:34.636Z,47.55
2018-12-22T13:16:01.921Z,47.01
2018-12-22T13:18:28.969Z,46.56
2018-12-22T13:20:55.436Z,47.50
2018-12-22T13:23:24.378Z,46.68
2018-12-22T13:25:51.889Z,46.09
2018-12-22T13:28:19.874Z,44.90
2018-12-22T13:30:47.243Z,45.87
2018-12-22T13:33:14.290Z,44.18
2018-12-22T13:35:42.266Z,44.44
2018-12-22T13:38:09.008Z,44.31
2018-12-22T13:40:36.495Z,45.62
2018-12-22T13:43:03.697Z,45.26
2018-12-22T13:45:31.173Z,46.13
2018-12-22T13:47:58.148Z,44.71
2018-12-22T13:50:26.134Z,46.20
2018-12-22T13:52:53.799Z,46.68
2018-12-22T13:55:20.248Z,46.06
2018-12-22T13:57:47.575Z,46.26
2018-12-22T14:00:14.290Z,46.71
2018-12-22T14:02:42.290Z,46.51
2018-12-22T14:05:08.790Z,47.04
2018-12-22T14:07:35.301Z,46.85
2018-12-22T14:10:01.751Z,48.20
2018-12-22T14:12:28.393Z,49.63
2018-12-22T14:14:55.583Z,48.86
2018-12-22T14:17:22.936Z,47.79
2018-12-22T14:19:51.402Z,49.06
2018-12-22T14:22:17.970Z,48.33
2018-12-22T14:24:44.944Z,47.39
2018-12-22T14:27:12.329Z,48.47
2018-12-22T14:29:39.025Z,48.12
2018-12-22T14:32:06.815Z,48.24
2018-12-22T14:34:34.334Z,49.05
2018-12-22T14:37:00.957Z,49.74
2018-12-22T14:39:27.401Z,51.78
2018-12-22T14:41:55.178Z,51.23
2018-12-22T14:44:23.282Z,50.49
2018-12-22T14:46:52.230Z,51.25
2018-12-22T14:49:19.205Z,50.81
2018-12-22T14:51:46.623Z,50.83
2018-12-22T14:54:13.073Z,51.20
2018-12-22T14:56:39.556Z,51.16
2018-12-22T14:59:07.573Z,52.05
2018-12-22T15:01:34.327Z,53.63
2018-12-22T15:04:01.623Z,52.50
2018-12-22T15:06:28.771Z,52.16
2018-12-22T15:08:55.580Z,52.90
2018-12-22T15:11:22.587Z,55.26
2018-12-22T15:13:49.075Z,55.39
2018-12-22T15:16:15.786Z,55.22
2018-12-22T15:18:42.813Z,54.23
2018-12-22T15:21:09.650Z,54.99
2018-12-22T15:23:36.782Z,55.89
2018-12-22T15:26:03.849Z,55.27
2018-12-22T15:28:31.588Z,54.41
2018-12-22T15:30:58.057Z,55.04
2018-12-22T15:33:26.124Z,59.29
2018-12-22T15:35:57.665Z,58.54
2018-12-22T15:38:24.463Z,57.97
2018-12-22T15:40:52.839Z,58.77
2018-12-22T15:43:20.881Z,57.55
2018-12-22T15:45:47.364Z,58.37
2018-12-22T15:48:13.821Z,59.25
2018-12-22T15:50:41.122Z,59.00
2018-12-22T15:53:07.646Z,60.32
2018-12-22T15:55:34.154Z,59.29
2018-12-22T15:58:00.667Z,58.16
2018-12-22T16:00:28.036Z,58.02
2018-12-22T16:02:54.543Z,60.03
2018-12-22T16:05:21.631Z,60.33
2018-12-22T16:07:48.793Z,59.05
2018-12-22T16:10:16.368Z,59.69
2018-12-22T16:12:42.936Z,59.42
2018-12-22T16:15:10.186Z,61.02
2018-12-22T16:17:38.190Z,60.22
2018-12-22T16:20:04.691Z,60.33
2018-12-22T16:22:32.706Z,60.63
2018-12-22T16:25:01.503Z,60.56
2018-12-22T16:27:28.199Z,60.66
2018-12-22T16:29:55.264Z,61.54
2018-12-22T16:32:21.823Z,60.92
2018-12-22T16:34:49.932Z,62.07
2018-12-22T16:37:16.652Z,61.25
2018-12-22T16:39:43.135Z,61.00
2018-12-22T16:42:10.167Z,60.31
2018-12-22T16:44:36.794Z,60.58
2018-12-22T16:47:03.538Z,60.18
2018-12-22T16:49:30.731Z,60.72
2018-12-22T16:51:58.127Z,61.37
2018-12-22T16:54:24.687Z,61.81
2018-12-22T16:56:51.268Z,60.75
2018-12-22T16:59:18.747Z,64.37
2018-12-22T17:01:46.342Z,64.04
2018-12-22T17:04:12.822Z,62.50
2018-12-22T17:06:40.818Z,62.23
2018-12-22T17:09:08.346Z,61.59
2018-12-22T17:11:35.133Z,63.12
2018-12-22T17:14:01.603Z,62.31
2018-12-22T17:16:28.076Z,62.97
2018-12-22T17:18:54.617Z,64.63
2018-12-22T17:21:22.223Z,64.26
2018-12-22T17:23:48.990Z,63.79
2018-12-22T17:26:16.470Z,64.26
2018-12-22T17:28:43.499Z,66.68
2018-12-22T17:31:10.088Z,65.41
2018-12-22T17:33:37.054Z,64.09
2018-12-22T17:36:04.077Z,62.50
2018-12-22T17:38:31.308Z,63.93
2018-12-22T17:40:58.529Z,62.36
2018-12-22T17:45:56.716Z,66.39
2018-12-22T17:48:23.874Z,65.71
2018-12-22T17:50:50.558Z,65.60
2018-12-22T17:53:17.767Z,64.65
2018-12-22T17:55:44.628Z,64.97
2018-12-22T17:58:11.139Z,66.13
2018-12-22T18:00:37.834Z,67.06
2018-12-22T18:03:05.941Z,66.67
2018-12-22T18:05:33.830Z,65.16
2018-12-22T18:08:02.379Z,65.06
2018-12-22T18:10:29.092Z,64.10
2018-12-22T18:12:57.256Z,63.17
2018-12-22T18:15:24.488Z,63.66
2018-12-22T18:17:51.575Z,63.42
2018-12-22T18:20:19.515Z,63.45
2018-12-22T18:22:46.300Z,63.05
2018-12-22T18:25:13.026Z,63.56
2018-12-22T18:27:40.377Z,62.88
2018-12-22T18:30:07.868Z,62.46
2018-12-22T18:32:34.536Z,62.85
2018-12-22T18:35:02.116Z,62.47
2018-12-22T18:37:28.633Z,61.40
2018-12-22T18:39:55.312Z,62.75
2018-12-22T18:42:22.028Z,62.97
2018-12-22T18:44:48.805Z,62.93
2018-12-22T18:47:15.377Z,63.14
2018-12-22T18:49:43.284Z,63.64
2018-12-22T18:52:09.721Z,64.20
2018-12-22T18:54:36.460Z,63.57
2018-12-22T18:57:03.625Z,62.94
2018-12-22T18:59:33.181Z,62.61
2018-12-22T19:01:59.914Z,62.58
2018-12-22T19:04:27.450Z,62.59
2018-12-22T19:06:53.948Z,61.17
2018-12-22T19:09:21.294Z,62.56
2018-12-22T19:11:48.084Z,62.20
2018-12-22T19:14:15.448Z,62.61
2018-12-22T19:16:42.138Z,62.90
2018-12-22T19:19:12.078Z,63.02
2018-12-22T19:21:38.656Z,63.23
2018-12-22T19:24:05.166Z,63.26
2018-12-22T19:26:33.112Z,63.54
2018-12-22T19:28:59.676Z,65.62
2018-12-22T19:31:26.151Z,65.06
2018-12-22T19:33:53.569Z,63.04
2018-12-22T19:36:20.781Z,62.45
2018-12-22T19:38:49.112Z,62.85
2018-12-22T19:41:15.659Z,64.52
2018-12-22T19:43:42.789Z,62.69
2018-12-22T19:46:10.053Z,63.37
2018-12-22T19:48:36.667Z,64.66
2018-12-22T19:51:03.930Z,66.07
2018-12-22T19:53:33.379Z,66.58
2018-12-22T19:56:01.189Z,66.55
2018-12-22T19:58:28.218Z,65.71
2018-12-22T20:00:55.458Z,66.59
2018-12-22T20:03:22.680Z,65.57
2018-12-22T20:05:49.814Z,66.78
2018-12-22T20:08:16.579Z,67.33
2018-12-22T20:10:45.065Z,66.98
2018-12-22T20:13:12.746Z,66.83
2018-12-22T20:15:40.020Z,66.91
2018-12-22T20:18:06.699Z,66.79
2018-12-22T20:20:34.099Z,66.52
2018-12-22T20:23:01.137Z,67.61
2018-12-22T20:25:27.718Z,66.98
2018-12-22T20:27:54.881Z,66.12
2018-12-22T20:30:22.930Z,67.29
2018-12-22T20:32:49.715Z,66.25
2018-12-22T20:35:16.220Z,65.84
2018-12-22T20:37:43.093Z,65.42
2018-12-22T20:40:10.223Z,64.95
2018-12-22T20:42:37.432Z,65.40
2018-12-22T20:45:04.088Z,65.32
2018-12-22T20:47:30.972Z,64.87
2018-12-22T20:49:57.820Z,65.10
2018-12-22T20:52:25.135Z,65.72
2018-12-22T20:54:52.353Z,64.95
2018-12-22T20:57:19.851Z,64.54
2018-12-22T20:59:46.645Z,64.03
2018-12-22T21:02:13.278Z,63.64
2018-12-22T21:04:40.411Z,63.81
2018-12-22T21:07:08.540Z,63.27
2018-12-22T21:09:35.649Z,62.07
2018-12-22T21:12:03.631Z,62.43
2018-12-22T21:14:30.585Z,62.60
2018-12-22T21:16:57.868Z,62.58
2018-12-22T21:19:24.458Z,63.74
2018-12-22T21:21:51.615Z,64.06
2018-12-22T21:24:18.765Z,63.30
2018-12-22T21:26:45.772Z,63.60
2018-12-22T21:29:12.265Z,64.36
2018-12-22T21:31:41.771Z,64.42
2018-12-22T21:34:08.258Z,63.98
2018-12-22T21:36:34.717Z,63.40
2018-12-22T21:39:02.023Z,63.39
2018-12-22T21:41:30.137Z,63.08
2018-12-22T21:43:56.908Z,61.91
2018-12-22T21:46:23.519Z,61.74
2018-12-22T21:48:50.020Z,61.84
2018-12-22T21:51:17.015Z,61.30
2018-12-22T21:53:43.530Z,61.45
2018-12-22T21:56:10.523Z,61.87
2018-12-22T21:58:38.241Z,63.02
2018-12-22T22:01:04.671Z,63.40
2018-12-22T22:03:31.305Z,62.88
2018-12-22T22:05:58.161Z,64.01
2018-12-22T22:08:25.289Z,63.38
2018-12-22T22:10:53.033Z,62.70
2018-12-22T22:13:22.967Z,63.71
2018-12-22T22:15:50.110Z,63.95
2018-12-22T22:18:16.844Z,63.98
2018-12-22T22:20:43.419Z,65.30
2018-12-22T22:23:18.832Z,66.85
2018-12-22T22:25:42.003Z,66.31
2018-12-22T22:28:08.540Z,65.01
2018-12-22T22:30:35.037Z,62.92
2018-12-22T22:33:02.435Z,63.76
2018-12-22T22:35:29.652Z,64.52
2018-12-22T22:37:56.263Z,64.12
2018-12-22T22:40:24.250Z,63.94
2018-12-22T22:42:51.182Z,64.92
2018-12-22T22:45:17.686Z,64.63
2018-12-22T22:47:44.349Z,64.48
2018-12-22T22:50:10.820Z,63.86
2018-12-22T22:52:37.585Z,63.59
2018-12-22T22:55:04.139Z,62.90
2018-12-22T22:57:31.363Z,62.93
2018-12-22T22:59:58.622Z,63.52
2018-12-22T23:02:25.497Z,63.50
2018-12-22T23:04:54.538Z,64.92
2018-12-22T23:07:22.085Z,64.65
2018-12-22T23:09:49.993Z,63.67
2018-12-22T23:12:16.791Z,65.17
2018-12-22T23:14:44.115Z,65.42
2018-12-22T23:17:10.623Z,65.70
2018-12-22T23:19:38.299Z,65.33
2018-12-22T23:22:04.791Z,65.25
2018-12-22T23:24:31.909Z,65.00
2018-12-22T23:26:59.155Z,64.40
2018-12-22T23:29:25.908Z,64.69
2018-12-22T23:31:53.273Z,65.60
2018-12-22T23:34:20.307Z,65.70
2018-12-22T23:36:48.404Z,66.10
2018-12-22T23:39:14.910Z,67.59
2018-12-22T23:41:42.318Z,66.76
2018-12-22T23:44:10.115Z,67.24
2018-12-22T23:46:40.922Z,69.10
2018-12-22T23:49:08.875Z,68.21
2018-12-22T23:51:36.438Z,66.32
2018-12-22T23:54:03.047Z,65.03
2018-12-22T23:56:31.690Z,65.37
2018-12-22T23:58:59.111Z,67.14
